Página principal
METAR-TAF:

METAR-TAF

Aeroportos :

Ramsar, Irão

latitude: 36-54N, longitude: 050-40E, altura: -23 m

Observação actual do tempo

O boletim foi feito há 44 minutos, às 12:00 UTC
Vento 4 kt de nor-noroeste
Temperatura 14°C
Humidade 82%
Pressão 1021 hPa
Visibilidade: 3500 m
Encobertoa uma altura de 1800 ft
neblina

METAR: OINR 161200Z 34004KT 3500 BR OVC018 14/11 Q1021

Hora: 16:14 (12:44 UTC)


TAF: em falta

Observações e previsões do tempo de mais de 4000 aeroportos (mensagens METAR e TAF).

As estações disponíveis são os pontos amarelos e vermelhos sobre o mapa.

Mova o rato sobre o mapa para ver o nome da estação.

Depois clique no ponto para visualizar as observações e previsões meteorológicas.

Para alterar o mapa : clique nos botões verdes com uma cruz preta para aumentar o zoom; no botão verde com uma pitada de zoom; ou nas setas verdes para mapas adjacentes.


METAR-TAF: